Airfield :
LOGIN :

Register | Disclaimer

   EN    FR    IT 

 










Legend :    VFR   Marginal VFR   IFR   Intensive IFR   Very Intensive IFR
Visi :
Ceiling :
>= 8 km
>= 3000ft
5 to 8 km
1000 to 3000 ft
1500m to 5 km
500 to 1000 ft
800 to 1500m
200 to 500 ft
< 800m
< 200 ft
Symbols :   Thunderstorms  Fog  Heavy snow  Heavy precipitations  Wind > 20 kt
SIGMETs :     Misc.  Thunderstorms  Icing  Turbulence  Mountain Waves  Volcanic Ashes






- Airport Elevation : 29 ft
- IATA code : SVG


ENZV - Sola

CURRENT METAR :
  • 230050Z 33017KT 9999 FEW033 BKN061 08/02 Q1014

EXPIRED METARs :
  • 230020Z 33017KT 9999 FEW040 OVC061 08/02 Q1014
  • 222350Z 33017KT 9999 BKN037 BKN062 08/01 Q1014
  • 222320Z 33015KT 9999 FEW038 SCT068 08/02 Q1013
  • 222250Z 34015KT 9999 SCT061 08/01 Q1013
  • 222220Z 35016KT 9999 FEW039 06/02 Q1012

TAF TAF ENZV
Valid from the 23 at 00:00 until the 24 at 00:00 UTC


2300/2324 34022KT 9999 -SHRA FEW020TCU BKN040
BECMG 2300/2303 34012KT
BECMG 2305/2307 VRB05KT
BECMG 2314/2316 16015KT



MET'MAP, your aeronautical weather chart ! - Copyright ORBIFLY December 2007 - Disclaimer

ORBIFLY MET'MAP TEAM :

Programming & Development : Alexandra Zaïnal
Concept & original design : Baudouin d'Aumeries
Assistance for programming : Marc-Olivier Méhu
Technical & hardware support : Manuel Goepfert

Contact : metmap@orbifly.com




SOURCES & CREDITS :

   NOAA